TAM3457 SBGO-SBSP
Flight info
| Callsign | TAM3457 |
|---|---|
| Flight time | 1h 22m |
| Altitude | 36000 |
| Route | ESBOD DCT ISISA DCT UTLOT |
| Aircraft | A320/M-SDE3FGHIRWY/LB1 |
Departure
| Time | 2026-04-21 20:04 |
|---|---|
| Airport | Santa Genoveva International Airport (SBGO) |
Arrival
| Time | 2026-04-21 21:26 |
|---|---|
| Airport | Congonhas–Deputado Freitas Nobre Airport (SBSP) |
| Time | Latitude | Longitude | Altitude | Speed | Heading |
|---|---|---|---|---|---|
| 2026-04-21 19:27 | -16.63005 | -49.21509 | 2462 ft | 0 kts | 57° |
| 2026-04-21 19:57 | -16.63006 | -49.21510 | 2462 ft | 2 kts | 57° |
| 2026-04-21 19:57 | -16.63019 | -49.21532 | 2468 ft | 4 kts | 53° |
| 2026-04-21 19:57 | -16.63027 | -49.21542 | 2464 ft | 0 kts | 44° |
| 2026-04-21 19:58 | -16.63026 | -49.21541 | 2464 ft | 0 kts | 44° |
| 2026-04-21 19:58 | -16.63030 | -49.21545 | 2463 ft | 2 kts | 52° |
| 2026-04-21 19:59 | -16.63035 | -49.21561 | 2462 ft | 2 kts | 123° |
| 2026-04-21 19:59 | -16.63033 | -49.21565 | 2462 ft | 0 kts | 142° |
| 2026-04-21 20:00 | -16.63040 | -49.21560 | 2462 ft | 2 kts | 150° |
| 2026-04-21 20:01 | -16.63069 | -49.21545 | 2465 ft | 6 kts | 153° |
| 2026-04-21 20:01 | -16.63106 | -49.21515 | 2462 ft | 9 kts | 134° |
| 2026-04-21 20:01 | -16.63150 | -49.21453 | 2462 ft | 12 kts | 121° |
| 2026-04-21 20:01 | -16.63195 | -49.21369 | 2466 ft | 14 kts | 120° |
| 2026-04-21 20:02 | -16.63248 | -49.21276 | 2462 ft | 16 kts | 120° |
| 2026-04-21 20:02 | -16.63306 | -49.21173 | 2467 ft | 17 kts | 120° |
| 2026-04-21 20:02 | -16.63366 | -49.21070 | 2464 ft | 17 kts | 126° |
| 2026-04-21 20:02 | -16.63469 | -49.21014 | 2465 ft | 18 kts | 166° |
| 2026-04-21 20:03 | -16.63586 | -49.21008 | 2462 ft | 14 kts | 203° |
| 2026-04-21 20:03 | -16.63680 | -49.21061 | 2464 ft | 17 kts | 211° |
| 2026-04-21 20:03 | -16.63753 | -49.21114 | 2465 ft | 10 kts | 243° |
| 2026-04-21 20:03 | -16.63721 | -49.21174 | 2466 ft | 11 kts | 299° |
| 2026-04-21 20:04 | -16.63582 | -49.21421 | 2463 ft | 83 kts | 301° |
| 2026-04-21 20:04 | -16.63157 | -49.22177 | 2453 ft | 157 kts | 300° |
| 2026-04-21 20:04 | -16.62570 | -49.23220 | 3122 ft | 168 kts | 300° |
| 2026-04-21 20:04 | -16.61969 | -49.24283 | 3904 ft | 177 kts | 299° |
| 2026-04-21 20:05 | -16.61319 | -49.25442 | 4261 ft | 195 kts | 300° |
| 2026-04-21 20:05 | -16.60595 | -49.26733 | 4565 ft | 219 kts | 300° |
| 2026-04-21 20:05 | -16.59787 | -49.28174 | 4880 ft | 242 kts | 301° |
| 2026-04-21 20:05 | -16.58896 | -49.29761 | 5214 ft | 265 kts | 301° |
| 2026-04-21 20:06 | -16.57929 | -49.31477 | 5723 ft | 280 kts | 300° |
| 2026-04-21 20:06 | -16.56933 | -49.33246 | 6495 ft | 285 kts | 300° |
| 2026-04-21 20:06 | -16.56262 | -49.35182 | 7226 ft | 289 kts | 273° |
| 2026-04-21 20:06 | -16.56641 | -49.37227 | 7959 ft | 291 kts | 240° |
| 2026-04-21 20:07 | -16.58004 | -49.38753 | 8706 ft | 291 kts | 208° |
| 2026-04-21 20:07 | -16.59934 | -49.39293 | 9473 ft | 290 kts | 176° |
| 2026-04-21 20:07 | -16.61893 | -49.38825 | 10226 ft | 291 kts | 158° |
| 2026-04-21 20:07 | -16.63761 | -49.38058 | 10903 ft | 295 kts | 157° |
| 2026-04-21 20:08 | -16.65680 | -49.37264 | 11605 ft | 299 kts | 157° |
| 2026-04-21 20:08 | -16.67624 | -49.36459 | 12321 ft | 302 kts | 157° |
| 2026-04-21 20:08 | -16.69601 | -49.35679 | 13021 ft | 306 kts | 161° |
| 2026-04-21 20:08 | -16.71678 | -49.35127 | 13724 ft | 310 kts | 167° |
| 2026-04-21 20:09 | -16.73809 | -49.34732 | 14354 ft | 313 kts | 170° |
| 2026-04-21 20:09 | -16.75975 | -49.34398 | 14971 ft | 316 kts | 171° |
| 2026-04-21 20:09 | -16.78154 | -49.34067 | 15584 ft | 318 kts | 170° |
| 2026-04-21 20:09 | -16.80344 | -49.33692 | 16187 ft | 320 kts | 166° |
| 2026-04-21 20:10 | -16.82462 | -49.32921 | 16543 ft | 330 kts | 154° |
| 2026-04-21 20:10 | -16.84586 | -49.31846 | 16664 ft | 348 kts | 153° |
| 2026-04-21 20:10 | -16.86800 | -49.30700 | 16930 ft | 360 kts | 153° |
| 2026-04-21 20:10 | -16.89056 | -49.29523 | 17357 ft | 365 kts | 153° |
| 2026-04-21 20:11 | -16.91341 | -49.28331 | 17870 ft | 369 kts | 153° |
| 2026-04-21 20:11 | -16.93616 | -49.27146 | 18376 ft | 372 kts | 153° |
| 2026-04-21 20:11 | -16.95941 | -49.25937 | 18842 ft | 374 kts | 153° |
| 2026-04-21 20:11 | -16.98286 | -49.24723 | 19311 ft | 377 kts | 154° |
| 2026-04-21 20:12 | -17.00647 | -49.23505 | 19783 ft | 380 kts | 154° |
| 2026-04-21 20:12 | -17.03030 | -49.22278 | 20260 ft | 383 kts | 154° |
| 2026-04-21 20:12 | -17.05428 | -49.21042 | 20755 ft | 386 kts | 154° |
| 2026-04-21 20:12 | -17.07845 | -49.19793 | 21233 ft | 389 kts | 154° |
| 2026-04-21 20:13 | -17.10276 | -49.18534 | 21714 ft | 392 kts | 154° |
| 2026-04-21 20:13 | -17.12728 | -49.17266 | 22194 ft | 395 kts | 154° |
| 2026-04-21 20:13 | -17.15195 | -49.15986 | 22675 ft | 398 kts | 154° |
| 2026-04-21 20:13 | -17.17684 | -49.14695 | 23156 ft | 401 kts | 154° |
| 2026-04-21 20:14 | -17.20193 | -49.13396 | 23609 ft | 403 kts | 154° |
| 2026-04-21 20:14 | -17.22684 | -49.12106 | 23981 ft | 406 kts | 154° |
| 2026-04-21 20:14 | -17.25228 | -49.10790 | 24359 ft | 409 kts | 154° |
| 2026-04-21 20:14 | -17.27809 | -49.09515 | 24733 ft | 411 kts | 159° |
| 2026-04-21 20:15 | -17.30555 | -49.08654 | 25084 ft | 414 kts | 169° |
| 2026-04-21 20:15 | -17.33420 | -49.08321 | 25439 ft | 416 kts | 179° |
| 2026-04-21 20:15 | -17.36323 | -49.08256 | 25785 ft | 419 kts | 179° |
| 2026-04-21 20:15 | -17.39245 | -49.08190 | 26133 ft | 421 kts | 179° |
| 2026-04-21 20:16 | -17.42186 | -49.08123 | 26478 ft | 424 kts | 179° |
| 2026-04-21 20:16 | -17.45138 | -49.08057 | 26808 ft | 426 kts | 179° |
| 2026-04-21 20:16 | -17.48112 | -49.07985 | 27136 ft | 428 kts | 179° |
| 2026-04-21 20:16 | -17.51101 | -49.07914 | 27455 ft | 431 kts | 179° |
| 2026-04-21 20:17 | -17.54110 | -49.07843 | 27773 ft | 433 kts | 179° |
| 2026-04-21 20:17 | -17.57095 | -49.07772 | 28080 ft | 435 kts | 179° |
| 2026-04-21 20:17 | -17.60133 | -49.07699 | 28390 ft | 438 kts | 179° |
| 2026-04-21 20:17 | -17.63180 | -49.07627 | 28748 ft | 439 kts | 179° |
| 2026-04-21 20:18 | -17.65211 | -49.07580 | 28964 ft | 440 kts | 179° |
| 2026-04-21 20:18 | -17.69324 | -49.07487 | 29412 ft | 443 kts | 179° |
| 2026-04-21 20:18 | -17.72416 | -49.07418 | 29738 ft | 445 kts | 179° |
| 2026-04-21 20:18 | -17.75522 | -49.07348 | 30051 ft | 447 kts | 179° |
| 2026-04-21 20:19 | -17.78640 | -49.07276 | 30322 ft | 449 kts | 179° |
| 2026-04-21 20:19 | -17.81779 | -49.07201 | 30602 ft | 451 kts | 179° |
| 2026-04-21 20:19 | -17.84921 | -49.07123 | 30877 ft | 453 kts | 179° |
| 2026-04-21 20:19 | -17.88030 | -49.07046 | 31162 ft | 454 kts | 179° |
| 2026-04-21 20:20 | -17.91184 | -49.06969 | 31531 ft | 452 kts | 179° |
| 2026-04-21 20:20 | -17.94322 | -49.06892 | 31972 ft | 450 kts | 179° |
| 2026-04-21 20:20 | -17.97443 | -49.06816 | 32404 ft | 448 kts | 179° |
| 2026-04-21 20:20 | -18.00553 | -49.06744 | 32841 ft | 446 kts | 179° |
| 2026-04-21 20:21 | -18.03649 | -49.06671 | 33265 ft | 444 kts | 179° |
| 2026-04-21 20:21 | -18.06733 | -49.06598 | 33703 ft | 442 kts | 179° |
| 2026-04-21 20:21 | -18.09805 | -49.06524 | 34118 ft | 440 kts | 179° |
| 2026-04-21 20:21 | -18.12869 | -49.06451 | 34492 ft | 439 kts | 179° |
| 2026-04-21 20:22 | -18.15912 | -49.06381 | 34912 ft | 436 kts | 179° |
| 2026-04-21 20:22 | -18.21949 | -49.06236 | 35685 ft | 432 kts | 179° |
| 2026-04-21 20:22 | -18.24950 | -49.06165 | 35907 ft | 431 kts | 179° |
| 2026-04-21 20:23 | -18.30926 | -49.06027 | 35961 ft | 428 kts | 179° |
| 2026-04-21 20:23 | -18.36829 | -49.05891 | 35961 ft | 427 kts | 179° |
| 2026-04-21 20:24 | -18.42763 | -49.05749 | 35961 ft | 426 kts | 179° |
| 2026-04-21 20:24 | -18.48686 | -49.05605 | 35961 ft | 426 kts | 179° |
| 2026-04-21 20:25 | -18.54614 | -49.05467 | 35968 ft | 426 kts | 179° |
| 2026-04-21 20:25 | -18.60543 | -49.05322 | 35974 ft | 426 kts | 179° |
| 2026-04-21 20:26 | -18.66481 | -49.05177 | 35975 ft | 426 kts | 179° |
| 2026-04-21 20:26 | -18.72372 | -49.05038 | 35987 ft | 426 kts | 179° |
| 2026-04-21 20:27 | -18.78299 | -49.04900 | 35990 ft | 426 kts | 179° |
| 2026-04-21 20:27 | -18.84221 | -49.04756 | 35991 ft | 425 kts | 179° |
| 2026-04-21 20:28 | -18.90141 | -49.04614 | 35991 ft | 425 kts | 179° |
| 2026-04-21 20:28 | -18.96056 | -49.04473 | 35992 ft | 425 kts | 179° |
| 2026-04-21 20:29 | -19.01924 | -49.04328 | 35988 ft | 425 kts | 179° |
| 2026-04-21 20:29 | -19.07832 | -49.04193 | 35986 ft | 424 kts | 179° |
| 2026-04-21 20:30 | -19.13740 | -49.04055 | 35984 ft | 424 kts | 179° |
| 2026-04-21 20:30 | -19.19645 | -49.03912 | 35986 ft | 424 kts | 179° |
| 2026-04-21 20:31 | -19.25548 | -49.03767 | 35987 ft | 424 kts | 179° |
| 2026-04-21 20:31 | -19.31454 | -49.03620 | 35988 ft | 424 kts | 179° |
| 2026-04-21 20:32 | -19.37351 | -49.03478 | 35984 ft | 424 kts | 179° |
| 2026-04-21 20:32 | -19.43254 | -49.03346 | 35989 ft | 424 kts | 179° |
| 2026-04-21 20:33 | -19.49117 | -49.03209 | 35989 ft | 424 kts | 179° |
| 2026-04-21 20:33 | -19.55024 | -49.03065 | 35988 ft | 425 kts | 179° |
| 2026-04-21 20:34 | -19.60932 | -49.02923 | 35986 ft | 425 kts | 179° |
| 2026-04-21 20:34 | -19.66842 | -49.02776 | 35989 ft | 425 kts | 179° |
| 2026-04-21 20:35 | -19.72749 | -49.02632 | 35997 ft | 424 kts | 179° |
| 2026-04-21 20:35 | -19.78655 | -49.02493 | 35995 ft | 424 kts | 179° |
| 2026-04-21 20:36 | -19.84556 | -49.02349 | 35994 ft | 424 kts | 179° |
| 2026-04-21 20:36 | -19.89463 | -49.02227 | 35994 ft | 424 kts | 179° |
| 2026-04-21 20:37 | -19.95367 | -49.02087 | 36003 ft | 424 kts | 180° |
| 2026-04-21 20:37 | -20.02222 | -49.01921 | 36002 ft | 423 kts | 179° |
| 2026-04-21 20:38 | -20.07159 | -49.01799 | 36000 ft | 423 kts | 179° |
| 2026-04-21 20:38 | -20.13012 | -49.01656 | 36001 ft | 423 kts | 179° |
| 2026-04-21 20:39 | -20.18907 | -49.01518 | 36004 ft | 423 kts | 180° |
| 2026-04-21 20:39 | -20.24794 | -49.01383 | 36006 ft | 422 kts | 180° |
| 2026-04-21 20:40 | -20.30629 | -49.01237 | 36006 ft | 422 kts | 180° |
| 2026-04-21 20:40 | -20.36506 | -49.01088 | 36004 ft | 421 kts | 180° |
| 2026-04-21 20:41 | -20.42367 | -49.00935 | 35998 ft | 421 kts | 180° |
| 2026-04-21 20:41 | -20.48228 | -49.00798 | 36006 ft | 421 kts | 180° |
| 2026-04-21 20:42 | -20.54084 | -49.00662 | 36008 ft | 421 kts | 180° |
| 2026-04-21 20:42 | -20.59910 | -49.00523 | 36007 ft | 421 kts | 180° |
| 2026-04-21 20:43 | -20.65767 | -49.00369 | 36010 ft | 421 kts | 180° |
| 2026-04-21 20:43 | -20.71621 | -49.00220 | 36013 ft | 421 kts | 180° |
| 2026-04-21 20:44 | -20.77479 | -49.00079 | 36015 ft | 420 kts | 180° |
| 2026-04-21 20:44 | -20.83295 | -48.99932 | 36017 ft | 420 kts | 180° |
| 2026-04-21 20:45 | -20.89139 | -48.99791 | 36015 ft | 420 kts | 180° |
| 2026-04-21 20:45 | -20.94982 | -48.99654 | 36016 ft | 420 kts | 181° |
| 2026-04-21 20:46 | -21.00816 | -48.99513 | 36017 ft | 419 kts | 181° |
| 2026-04-21 20:46 | -21.06648 | -48.99367 | 36020 ft | 419 kts | 180° |
| 2026-04-21 20:47 | -21.12479 | -48.99220 | 36014 ft | 419 kts | 181° |
| 2026-04-21 20:47 | -21.18307 | -48.99080 | 36024 ft | 419 kts | 181° |
| 2026-04-21 20:48 | -21.24091 | -48.98934 | 36025 ft | 418 kts | 181° |
| 2026-04-21 20:48 | -21.29906 | -48.98789 | 36021 ft | 418 kts | 181° |
| 2026-04-21 20:49 | -21.35730 | -48.98648 | 36023 ft | 418 kts | 181° |
| 2026-04-21 20:49 | -21.41536 | -48.98509 | 36022 ft | 417 kts | 181° |
| 2026-04-21 20:50 | -21.47345 | -48.98365 | 36029 ft | 417 kts | 181° |
| 2026-04-21 20:50 | -21.53112 | -48.98223 | 36029 ft | 417 kts | 181° |
| 2026-04-21 20:51 | -21.58915 | -48.98087 | 36030 ft | 417 kts | 180° |
| 2026-04-21 20:51 | -21.61837 | -48.97668 | 36028 ft | 421 kts | 169° |
| 2026-04-21 20:51 | -21.64578 | -48.96641 | 36025 ft | 426 kts | 158° |
| 2026-04-21 20:52 | -21.69355 | -48.92890 | 36026 ft | 439 kts | 136° |
| 2026-04-21 20:52 | -21.73259 | -48.87797 | 36021 ft | 442 kts | 134° |
| 2026-04-21 20:53 | -21.77153 | -48.82669 | 35894 ft | 443 kts | 134° |
| 2026-04-21 20:53 | -21.79092 | -48.80111 | 35999 ft | 442 kts | 134° |
| 2026-04-21 20:53 | -21.81039 | -48.77546 | 36020 ft | 443 kts | 134° |
| 2026-04-21 20:54 | -21.84921 | -48.72423 | 36022 ft | 442 kts | 134° |
| 2026-04-21 20:54 | -21.88787 | -48.67317 | 36022 ft | 443 kts | 134° |
| 2026-04-21 20:55 | -21.92688 | -48.62158 | 36019 ft | 443 kts | 134° |
| 2026-04-21 20:55 | -21.96576 | -48.56997 | 36023 ft | 443 kts | 134° |
| 2026-04-21 20:56 | -22.00465 | -48.51832 | 36026 ft | 443 kts | 134° |
| 2026-04-21 20:56 | -22.04334 | -48.46711 | 36026 ft | 443 kts | 134° |
| 2026-04-21 20:57 | -22.08224 | -48.41552 | 36029 ft | 443 kts | 134° |
| 2026-04-21 20:57 | -22.12112 | -48.36384 | 36025 ft | 444 kts | 134° |
| 2026-04-21 20:58 | -22.16000 | -48.31204 | 36031 ft | 444 kts | 134° |
| 2026-04-21 20:58 | -22.19855 | -48.26064 | 36047 ft | 444 kts | 134° |
| 2026-04-21 20:59 | -22.23749 | -48.20868 | 36038 ft | 445 kts | 134° |
| 2026-04-21 20:59 | -22.25699 | -48.18269 | 35902 ft | 446 kts | 134° |
| 2026-04-21 20:59 | -22.27651 | -48.15669 | 35668 ft | 445 kts | 134° |
| 2026-04-21 21:00 | -22.29598 | -48.13075 | 35430 ft | 443 kts | 134° |
| 2026-04-21 21:00 | -22.31531 | -48.10499 | 35150 ft | 439 kts | 134° |
| 2026-04-21 21:00 | -22.33446 | -48.07940 | 34676 ft | 437 kts | 134° |
| 2026-04-21 21:00 | -22.35353 | -48.05387 | 34194 ft | 436 kts | 133° |
| 2026-04-21 21:01 | -22.37227 | -48.02873 | 33680 ft | 435 kts | 133° |
| 2026-04-21 21:01 | -22.39118 | -48.00332 | 33191 ft | 433 kts | 133° |
| 2026-04-21 21:01 | -22.41002 | -47.97806 | 32711 ft | 430 kts | 133° |
| 2026-04-21 21:01 | -22.42877 | -47.95296 | 32226 ft | 429 kts | 133° |
| 2026-04-21 21:02 | -22.44748 | -47.92790 | 31749 ft | 427 kts | 132° |
| 2026-04-21 21:02 | -22.46610 | -47.90297 | 31299 ft | 426 kts | 132° |
| 2026-04-21 21:02 | -22.48468 | -47.87809 | 30841 ft | 425 kts | 132° |
| 2026-04-21 21:02 | -22.50323 | -47.85332 | 30400 ft | 423 kts | 132° |
| 2026-04-21 21:03 | -22.52181 | -47.82861 | 29928 ft | 423 kts | 132° |
| 2026-04-21 21:03 | -22.54033 | -47.80401 | 29480 ft | 421 kts | 131° |
| 2026-04-21 21:03 | -22.55876 | -47.77955 | 29054 ft | 418 kts | 131° |
| 2026-04-21 21:03 | -22.57707 | -47.75523 | 28642 ft | 416 kts | 131° |
| 2026-04-21 21:04 | -22.59529 | -47.73101 | 28232 ft | 414 kts | 131° |
| 2026-04-21 21:04 | -22.61345 | -47.70685 | 27821 ft | 412 kts | 131° |
| 2026-04-21 21:04 | -22.63148 | -47.68283 | 27404 ft | 411 kts | 131° |
| 2026-04-21 21:04 | -22.64946 | -47.65882 | 26989 ft | 410 kts | 131° |
| 2026-04-21 21:05 | -22.66733 | -47.63492 | 26575 ft | 409 kts | 131° |
| 2026-04-21 21:05 | -22.68499 | -47.61130 | 26155 ft | 408 kts | 131° |
| 2026-04-21 21:05 | -22.70283 | -47.58743 | 25723 ft | 408 kts | 131° |
| 2026-04-21 21:05 | -22.72070 | -47.56353 | 25289 ft | 408 kts | 131° |
| 2026-04-21 21:06 | -22.73838 | -47.53988 | 25100 ft | 400 kts | 131° |
| 2026-04-21 21:06 | -22.75581 | -47.51658 | 24799 ft | 395 kts | 131° |
| 2026-04-21 21:06 | -22.77305 | -47.49355 | 24454 ft | 392 kts | 131° |
| 2026-04-21 21:06 | -22.79016 | -47.47067 | 24097 ft | 389 kts | 130° |
| 2026-04-21 21:07 | -22.80717 | -47.44793 | 23745 ft | 387 kts | 130° |
| 2026-04-21 21:07 | -22.82404 | -47.42537 | 23340 ft | 384 kts | 130° |
| 2026-04-21 21:07 | -22.84077 | -47.40293 | 22925 ft | 381 kts | 130° |
| 2026-04-21 21:07 | -22.85711 | -47.38092 | 22497 ft | 378 kts | 130° |
| 2026-04-21 21:08 | -22.87357 | -47.35875 | 22079 ft | 376 kts | 130° |
| 2026-04-21 21:08 | -22.88990 | -47.33682 | 21688 ft | 372 kts | 130° |
| 2026-04-21 21:08 | -22.90613 | -47.31505 | 21292 ft | 369 kts | 130° |
| 2026-04-21 21:08 | -22.92223 | -47.29345 | 20896 ft | 367 kts | 130° |
| 2026-04-21 21:09 | -22.93819 | -47.27199 | 20510 ft | 364 kts | 130° |
| 2026-04-21 21:09 | -22.95403 | -47.25068 | 20119 ft | 361 kts | 130° |
| 2026-04-21 21:09 | -22.96974 | -47.22953 | 19743 ft | 359 kts | 130° |
| 2026-04-21 21:09 | -22.98532 | -47.20851 | 19365 ft | 356 kts | 130° |
| 2026-04-21 21:10 | -23.00082 | -47.18761 | 18988 ft | 354 kts | 130° |
| 2026-04-21 21:10 | -23.01798 | -47.16875 | 18627 ft | 349 kts | 143° |
| 2026-04-21 21:10 | -23.03852 | -47.15529 | 18265 ft | 344 kts | 158° |
| 2026-04-21 21:10 | -23.06120 | -47.14771 | 17827 ft | 340 kts | 169° |
| 2026-04-21 21:11 | -23.08434 | -47.14265 | 17392 ft | 338 kts | 169° |
| 2026-04-21 21:11 | -23.10733 | -47.13760 | 16991 ft | 336 kts | 169° |
| 2026-04-21 21:11 | -23.12991 | -47.13264 | 16590 ft | 334 kts | 169° |
| 2026-04-21 21:11 | -23.15261 | -47.12767 | 16193 ft | 332 kts | 169° |
| 2026-04-21 21:12 | -23.17519 | -47.12274 | 15818 ft | 329 kts | 169° |
| 2026-04-21 21:12 | -23.19763 | -47.11793 | 15434 ft | 327 kts | 169° |
| 2026-04-21 21:12 | -23.21990 | -47.11323 | 15039 ft | 325 kts | 169° |
| 2026-04-21 21:12 | -23.24208 | -47.10860 | 14665 ft | 323 kts | 169° |
| 2026-04-21 21:13 | -23.26414 | -47.10406 | 14262 ft | 323 kts | 169° |
| 2026-04-21 21:13 | -23.28619 | -47.09960 | 13982 ft | 319 kts | 169° |
| 2026-04-21 21:13 | -23.30803 | -47.09522 | 13577 ft | 319 kts | 169° |
| 2026-04-21 21:13 | -23.32982 | -47.09085 | 13169 ft | 317 kts | 169° |
| 2026-04-21 21:14 | -23.35122 | -47.08657 | 12783 ft | 316 kts | 169° |
| 2026-04-21 21:14 | -23.37250 | -47.08227 | 12377 ft | 305 kts | 169° |
| 2026-04-21 21:14 | -23.39293 | -47.07812 | 11987 ft | 293 kts | 169° |
| 2026-04-21 21:14 | -23.41259 | -47.07409 | 11601 ft | 282 kts | 169° |
| 2026-04-21 21:15 | -23.43152 | -47.07020 | 11218 ft | 272 kts | 169° |
| 2026-04-21 21:15 | -23.44988 | -47.06642 | 10851 ft | 264 kts | 169° |
| 2026-04-21 21:15 | -23.46769 | -47.06272 | 10477 ft | 257 kts | 169° |
| 2026-04-21 21:15 | -23.48503 | -47.05909 | 10110 ft | 250 kts | 169° |
| 2026-04-21 21:16 | -23.50192 | -47.05561 | 9707 ft | 244 kts | 169° |
| 2026-04-21 21:16 | -23.51838 | -47.05223 | 9309 ft | 238 kts | 169° |
| 2026-04-21 21:16 | -23.53463 | -47.04887 | 8922 ft | 239 kts | 169° |
| 2026-04-21 21:16 | -23.55106 | -47.04544 | 8519 ft | 240 kts | 169° |
| 2026-04-21 21:17 | -23.56728 | -47.04202 | 8128 ft | 234 kts | 169° |
| 2026-04-21 21:17 | -23.58284 | -47.03860 | 7915 ft | 219 kts | 165° |
| 2026-04-21 21:17 | -23.59618 | -47.03193 | 7675 ft | 216 kts | 142° |
| 2026-04-21 21:17 | -23.60613 | -47.02043 | 7714 ft | 206 kts | 117° |
| 2026-04-21 21:18 | -23.60949 | -47.00524 | 7810 ft | 208 kts | 90° |
| 2026-04-21 21:18 | -23.60620 | -46.98994 | 7723 ft | 209 kts | 64° |
| 2026-04-21 21:18 | -23.59987 | -46.97562 | 7607 ft | 209 kts | 68° |
| 2026-04-21 21:18 | -23.59437 | -46.96088 | 7466 ft | 209 kts | 69° |
| 2026-04-21 21:19 | -23.58910 | -46.94607 | 7251 ft | 214 kts | 69° |
| 2026-04-21 21:19 | -23.58372 | -46.93099 | 7047 ft | 211 kts | 69° |
| 2026-04-21 21:19 | -23.57832 | -46.91601 | 6754 ft | 213 kts | 68° |
| 2026-04-21 21:19 | -23.57284 | -46.90096 | 6503 ft | 212 kts | 68° |
| 2026-04-21 21:20 | -23.56740 | -46.88616 | 6227 ft | 212 kts | 68° |
| 2026-04-21 21:20 | -23.56201 | -46.87153 | 6040 ft | 205 kts | 68° |
| 2026-04-21 21:20 | -23.55679 | -46.85743 | 5841 ft | 194 kts | 67° |
| 2026-04-21 21:20 | -23.55197 | -46.84449 | 5733 ft | 182 kts | 68° |
| 2026-04-21 21:21 | -23.54720 | -46.83176 | 5633 ft | 180 kts | 67° |
| 2026-04-21 21:21 | -23.54248 | -46.81919 | 5567 ft | 179 kts | 67° |
| 2026-04-21 21:21 | -23.53779 | -46.80670 | 5489 ft | 178 kts | 67° |
| 2026-04-21 21:21 | -23.53324 | -46.79456 | 5408 ft | 167 kts | 67° |
| 2026-04-21 21:22 | -23.52893 | -46.78311 | 5344 ft | 165 kts | 67° |
| 2026-04-21 21:22 | -23.52439 | -46.77112 | 5276 ft | 174 kts | 67° |
| 2026-04-21 21:22 | -23.52003 | -46.75872 | 5144 ft | 177 kts | 75° |
| 2026-04-21 21:22 | -23.51924 | -46.74543 | 4940 ft | 174 kts | 97° |
| 2026-04-21 21:23 | -23.52293 | -46.73318 | 4787 ft | 168 kts | 118° |
| 2026-04-21 21:23 | -23.53017 | -46.72351 | 4606 ft | 162 kts | 140° |
| 2026-04-21 21:23 | -23.53924 | -46.71693 | 4436 ft | 153 kts | 147° |
| 2026-04-21 21:23 | -23.54797 | -46.71089 | 4273 ft | 146 kts | 147° |
| 2026-04-21 21:24 | -23.55645 | -46.70504 | 4087 ft | 142 kts | 146° |
| 2026-04-21 21:24 | -23.56465 | -46.69937 | 3908 ft | 139 kts | 146° |
| 2026-04-21 21:24 | -23.57277 | -46.69375 | 3763 ft | 138 kts | 146° |
| 2026-04-21 21:24 | -23.58090 | -46.68814 | 3601 ft | 137 kts | 147° |
| 2026-04-21 21:25 | -23.58883 | -46.68277 | 3445 ft | 136 kts | 146° |
| 2026-04-21 21:25 | -23.59687 | -46.67723 | 3248 ft | 136 kts | 147° |
| 2026-04-21 21:25 | -23.60479 | -46.67176 | 3070 ft | 134 kts | 146° |
| 2026-04-21 21:25 | -23.61260 | -46.66623 | 2851 ft | 133 kts | 147° |
| 2026-04-21 21:26 | -23.62047 | -46.66077 | 2638 ft | 135 kts | 149° |
| 2026-04-21 21:26 | -23.62723 | -46.65608 | 2608 ft | 78 kts | 147° |
| 2026-04-21 21:26 | -23.63026 | -46.65399 | 2610 ft | 23 kts | 148° |
| 2026-04-21 21:26 | -23.63153 | -46.65380 | 2607 ft | 9 kts | 191° |
| 2026-04-21 21:27 | -23.63157 | -46.65451 | 2602 ft | 14 kts | 314° |
| 2026-04-21 21:27 | -23.63085 | -46.65498 | 2602 ft | 12 kts | 329° |
| 2026-04-21 21:27 | -23.63006 | -46.65523 | 2603 ft | 12 kts | 345° |
| 2026-04-21 21:27 | -23.62927 | -46.65573 | 2603 ft | 14 kts | 327° |
| 2026-04-21 21:28 | -23.62839 | -46.65636 | 2603 ft | 16 kts | 326° |
| 2026-04-21 21:28 | -23.62746 | -46.65699 | 2602 ft | 12 kts | 328° |
| 2026-04-21 21:28 | -23.62641 | -46.65771 | 2602 ft | 4 kts | 327° |
| 2026-04-21 21:29 | -23.62619 | -46.65799 | 2602 ft | 5 kts | 271° |
| 2026-04-21 21:29 | -23.62641 | -46.65837 | 2601 ft | 7 kts | 238° |
| 2026-04-21 21:29 | -23.62656 | -46.65862 | 2601 ft | 2 kts | 237° |
| 2026-04-21 21:29 | -23.62657 | -46.65864 | 2601 ft | 0 kts | 237° |
| 2026-04-21 21:31 | -23.62658 | -46.65865 | 2601 ft | 0 kts | 237° |